| time (UTC) | temp F | wind direction | speed knots | gust knots | rain 1hr in | rain 24hr in | rain mn in | humidity % | barometer mb |
| 20260503005309 | 71 | 229 | 0.0 | 0.0 | 0.00 | 0.00 | 0.00 | 20 | 1003.8 |
| 20260503004804 | 71 | 229 | 0.0 | 0.0 | 0.00 | 0.00 | 0.00 | 20 | 1003.9 |
| 20260503004303 | 72 | 229 | 0.0 | 0.0 | 0.00 | 0.00 | 0.00 | 20 | 1003.8 |
| 20260503003224 | 72 | 229 | 0.0 | 0.0 | 0.00 | 0.00 | 0.00 | 15 | 1003.8 |
| 20260503002711 | 73 | 229 | 0.0 | 3.5 | 0.00 | 0.00 | 0.00 | 16 | 1003.9 |
| 20260503002151 | 73 | 229 | 0.0 | 5.2 | 0.00 | 0.00 | 0.00 | 15 | 1003.9 |
| 20260503001620 | 73 | 255 | 0.0 | 10.4 | 0.00 | 0.00 | 0.00 | 14 | 1003.9 |
| 20260503001113 | 74 | 250 | 3.5 | 10.4 | 0.00 | 0.00 | 0.00 | 13 | 1003.9 |
| 20260503000115 | 75 | 239 | 0.0 | 10.4 | 0.00 | 0.00 | 0.00 | 13 | 1003.9 |
| 20260502235604 | 76 | 222 | 1.7 | 11.3 | 0.00 | 0.00 | 0.00 | 13 | 1003.9 |
| 20260502235101 | 76 | 253 | 3.5 | 12.2 | 0.00 | 0.00 | 0.00 | 12 | 1003.9 |
| 20260502234601 | 77 | 250 | 3.5 | 13.0 | 0.00 | 0.00 | 0.00 | 11 | 1004.0 |
| 20260502233558 | 76 | 236 | 5.2 | 11.3 | 0.00 | 0.00 | 0.00 | 12 | 1004.1 |
| 20260502233057 | 76 | 270 | 6.1 | 13.9 | 0.00 | 0.00 | 0.00 | 12 | 1004.0 |
| 20260502232557 | 76 | 239 | 6.1 | 20.9 | 0.00 | 0.00 | 0.00 | 11 | 1004.1 |
| 20260502232055 | 76 | 199 | 8.7 | 20.9 | 0.00 | 0.00 | 0.00 | 12 | 1004.1 |
| 20260502231556 | 76 | 202 | 9.6 | 20.0 | 0.00 | 0.00 | 0.00 | 12 | 1004.0 |
| 20260502231053 | 75 | 251 | 6.1 | 13.0 | 0.00 | 0.00 | 0.00 | 13 | 1004.1 |
| 20260502230554 | 75 | 198 | 6.1 | 14.8 | 0.00 | 0.00 | 0.00 | 14 | 1004.1 |
| 20260502230052 | 76 | 274 | 5.2 | 14.8 | 0.00 | 0.00 | 0.00 | 13 | 1004.2 |
| 20260502225551 | 76 | 247 | 5.2 | 11.3 | 0.00 | 0.00 | 0.00 | 13 | 1004.2 |
| 20260502225051 | 76 | 220 | 3.5 | 13.0 | 0.00 | 0.00 | 0.00 | 12 | 1004.2 |
| 20260502224549 | 76 | 254 | 5.2 | 13.0 | 0.00 | 0.00 | 0.00 | 13 | 1004.3 |
| 20260502222543 | 76 | 203 | 4.3 | 15.6 | 0.00 | 0.00 | 0.00 | 13 | 1004.3 |
| 20260502222043 | 75 | 209 | 1.7 | 12.2 | 0.00 | 0.00 | 0.00 | 14 | 1004.5 |
| 20260502221542 | 75 | 270 | 7.8 | 12.2 | 0.00 | 0.00 | 0.00 | 14 | 1004.6 |
| 20260502221041 | 74 | 229 | 6.1 | 13.0 | 0.00 | 0.00 | 0.00 | 15 | 1004.7 |
| 20260502220542 | 74 | 201 | 5.2 | 13.0 | 0.00 | 0.00 | 0.00 | 14 | 1004.7 |
| 20260502220037 | 74 | 248 | 5.2 | 13.0 | 0.00 | 0.00 | 0.00 | 14 | 1004.7 |
| 20260502215538 | 75 | 251 | 4.3 | 12.2 | 0.00 | 0.00 | 0.00 | 15 | 1004.8 |
| 20260502215037 | 75 | 232 | 6.1 | 10.4 | 0.00 | 0.00 | 0.00 | 15 | 1004.9 |
| 20260502214536 | 74 | 239 | 6.1 | 12.2 | 0.00 | 0.00 | 0.00 | 16 | 1005.0 |
| 20260502214034 | 74 | 254 | 5.2 | 12.2 | 0.00 | 0.00 | 0.00 | 15 | 1004.9 |
| 20260502213533 | 74 | 264 | 6.1 | 12.2 | 0.00 | 0.00 | 0.00 | 16 | 1005.0 |
| 20260502213033 | 74 | 243 | 5.2 | 12.2 | 0.00 | 0.00 | 0.00 | 16 | 1005.0 |
| 20260502212532 | 74 | 222 | 6.1 | 11.3 | 0.00 | 0.00 | 0.00 | 16 | 1005.2 |
| 20260502212031 | 74 | 196 | 7.8 | 11.3 | 0.00 | 0.00 | 0.00 | 16 | 1005.2 |
| 20260502211530 | 74 | 261 | 8.7 | 16.5 | 0.00 | 0.00 | 0.00 | 16 | 1005.3 |
| 20260502211029 | 74 | 196 | 8.7 | 16.5 | 0.00 | 0.00 | 0.00 | 16 | 1005.3 |
| 20260502210528 | 73 | 234 | 6.1 | 16.5 | 0.00 | 0.00 | 0.00 | 17 | 1005.3 |
| 20260502210028 | 73 | 174 | 6.1 | 12.2 | 0.00 | 0.00 | 0.00 | 16 | 1005.3 |
| 20260502205528 | 74 | 343 | 4.3 | 9.6 | 0.00 | 0.00 | 0.00 | 16 | 1005.4 |
| 20260502205026 | 74 | 253 | 4.3 | 11.3 | 0.00 | 0.00 | 0.00 | 16 | 1005.5 |
| 20260502204525 | 74 | 239 | 4.3 | 13.9 | 0.00 | 0.00 | 0.00 | 17 | 1005.6 |
| 20260502204024 | 74 | 195 | 5.2 | 13.9 | 0.00 | 0.00 | 0.00 | 16 | 1005.6 |
| 20260502203523 | 74 | 216 | 7.8 | 17.4 | 0.00 | 0.00 | 0.00 | 17 | 1005.6 |
| 20260502203022 | 74 | 241 | 6.1 | 17.4 | 0.00 | 0.00 | 0.00 | 17 | 1005.7 |
| 20260502202523 | 73 | 300 | 7.0 | 12.2 | 0.00 | 0.00 | 0.00 | 17 | 1005.7 |
| 20260502201519 | 72 | 223 | 4.3 | 15.6 | 0.00 | 0.00 | 0.00 | 17 | 1005.8 |
| 20260502201017 | 72 | 206 | 6.1 | 15.6 | 0.00 | 0.00 | 0.00 | 18 | 1005.8 |
| 20260502200518 | 71 | 226 | 8.7 | 14.8 | 0.00 | 0.00 | 0.00 | 18 | 1006.0 |
| 20260502200014 | 71 | 258 | 6.1 | 13.9 | 0.00 | 0.00 | 0.00 | 19 | 1006.0 |
| 20260502194511 | 71 | 240 | 8.7 | 13.0 | 0.00 | 0.00 | 0.00 | 18 | 1006.1 |
| 20260502193008 | 70 | 234 | 7.8 | 10.4 | 0.00 | 0.00 | 0.00 | 22 | 1006.3 |
| 20260502192506 | 69 | 262 | 6.1 | 9.6 | 0.00 | 0.00 | 0.00 | 22 | 1006.4 |
| 20260502192005 | 69 | 217 | 0.0 | 9.6 | 0.00 | 0.00 | 0.00 | 23 | 1006.5 |
| 20260502191504 | 68 | 208 | 1.7 | 7.8 | 0.00 | 0.00 | 0.00 | 25 | 1006.5 |
| 20260502191004 | 67 | 32 | 4.3 | 7.8 | 0.00 | 0.00 | 0.00 | 25 | 1006.5 |
| 20260502190503 | 67 | 30 | 2.6 | 7.8 | 0.00 | 0.00 | 0.00 | 25 | 1006.7 |
| 20260502190005 | 66 | 277 | 0.0 | 0.0 | 0.00 | 0.00 | 0.00 | 26 | 1006.7 |
| 20260502184954 | 66 | 277 | 0.0 | 7.8 | 0.00 | 0.00 | 0.00 | 27 | 1006.9 |
| 20260502184443 | 66 | 219 | 4.3 | 7.8 | 0.00 | 0.00 | 0.00 | 28 | 1007.0 |
| 20260502183939 | 65 | 57 | 3.5 | 6.1 | 0.00 | 0.00 | 0.00 | 26 | 1007.0 |
| 20260502183438 | 66 | 293 | 2.6 | 7.0 | 0.00 | 0.00 | 0.00 | 26 | 1007.1 |
| 20260502182435 | 65 | 327 | 5.2 | 7.8 | 0.00 | 0.00 | 0.00 | 28 | 1007.2 |
| 20260502181935 | 65 | 354 | 0.0 | 6.1 | 0.00 | 0.00 | 0.00 | 27 | 1007.2 |
| 20260502180924 | 64 | 54 | 0.0 | 7.8 | 0.00 | 0.00 | 0.00 | 28 | 1007.4 |
| 20260502180418 | 63 | 43 | 5.2 | 7.8 | 0.00 | 0.00 | 0.00 | 29 | 1007.4 |
| 20260502170225 | 56 | 7 | 0.0 | 2.6 | 0.00 | 0.00 | 0.00 | 50 | 1008.3 |
| 20260502164131 | 53 | 201 | 0.0 | 0.0 | 0.00 | 0.00 | 0.00 | 54 | 1008.6 |
| 20260502162028 | 51 | 201 | 0.0 | 0.0 | 0.00 | 0.00 | 0.00 | 57 | 1008.9 |
| 20260502161021 | 51 | 201 | 0.0 | 0.0 | 0.00 | 0.00 | 0.00 | 58 | 1009.0 |
| 20260502160517 | 50 | 201 | 0.0 | 2.6 | 0.00 | 0.00 | 0.00 | 59 | 1009.0 |
| 20260502152338 | 45 | 215 | 0.0 | 0.0 | 0.00 | 0.00 | 0.00 | 68 | 1009.5 |
| 20260502151824 | 44 | 215 | 0.0 | 0.0 | 0.00 | 0.00 | 0.00 | 70 | 1009.6 |
| 20260502151321 | 43 | 215 | 0.0 | 0.0 | 0.00 | 0.00 | 0.00 | 73 | 1009.6 |
| 20260502150753 | 43 | 215 | 0.0 | 0.0 | 0.00 | 0.00 | 0.00 | 74 | 1009.6 |
| 20260502150239 | 42 | 215 | 0.0 | 0.0 | 0.00 | 0.00 | 0.00 | 75 | 1009.7 |
| 20260502130405 | 32 | 215 | 0.0 | 0.0 | 0.00 | 0.00 | 0.00 | 87 | 1009.8 |
| 20260502123326 | 32 | 215 | 0.0 | 0.0 | 0.00 | 0.00 | 0.00 | 86 | 1009.7 |
| 20260502122819 | 32 | 215 | 0.0 | 0.0 | 0.00 | 0.00 | 0.00 | 85 | 1009.6 |
| 20260502122238 | 33 | 215 | 0.0 | 0.0 | 0.00 | 0.00 | 0.00 | 85 | 1009.7 |
| 20260502121715 | 32 | 215 | 0.0 | 0.0 | 0.00 | 0.00 | 0.00 | 85 | 1009.6 |
| 20260502121149 | 33 | 215 | 0.0 | 0.0 | 0.00 | 0.00 | 0.00 | 85 | 1009.6 |
| 20260502120637 | 33 | 215 | 0.0 | 0.0 | 0.00 | 0.00 | 0.00 | 85 | 1009.6 |
| 20260502120135 | 32 | 215 | 0.0 | 0.0 | 0.00 | 0.00 | 0.00 | 85 | 1009.6 |
| 20260502115629 | 32 | 215 | 0.0 | 0.0 | 0.00 | 0.00 | 0.00 | 86 | 1009.6 |
| 20260502115124 | 32 | 215 | 0.0 | 0.0 | 0.00 | 0.00 | 0.00 | 86 | 1009.6 |
| 20260502114619 | 32 | 215 | 0.0 | 0.0 | 0.00 | 0.00 | 0.00 | 85 | 1009.7 |
| 20260502113614 | 33 | 215 | 0.0 | 0.0 | 0.00 | 0.00 | 0.00 | 84 | 1009.7 |
| 20260502112607 | 33 | 215 | 0.0 | 0.0 | 0.00 | 0.00 | 0.00 | 84 | 1009.5 |
| 20260502112102 | 33 | 215 | 0.0 | 0.0 | 0.00 | 0.00 | 0.00 | 83 | 1009.6 |
| 20260502111600 | 34 | 215 | 0.0 | 0.0 | 0.00 | 0.00 | 0.00 | 83 | 1009.5 |
| 20260502110036 | 34 | 215 | 0.0 | 2.6 | 0.00 | 0.00 | 0.00 | 83 | 1009.5 |
| 20260502105529 | 34 | 215 | 2.6 | 2.6 | 0.00 | 0.00 | 0.00 | 83 | 1009.6 |
| 20260502105006 | 34 | 46 | 0.0 | 5.2 | 0.00 | 0.00 | 0.00 | 83 | 1009.6 |
| 20260502104446 | 34 | 46 | 0.0 | 5.2 | 0.00 | 0.00 | 0.00 | 82 | 1009.5 |
| 20260502102436 | 35 | 18 | 0.0 | 0.0 | 0.00 | 0.00 | 0.00 | 80 | 1009.5 |
| 20260502101933 | 35 | 18 | 0.0 | 0.0 | 0.00 | 0.00 | 0.00 | 80 | 1009.5 |
| 20260502101425 | 35 | 18 | 0.0 | 0.0 | 0.00 | 0.00 | 0.00 | 80 | 1009.5 |
| 20260502100923 | 35 | 18 | 0.0 | 0.0 | 0.00 | 0.00 | 0.00 | 80 | 1009.5 |
| 20260502100419 | 35 | 18 | 0.0 | 0.0 | 0.00 | 0.00 | 0.00 | 80 | 1009.5 |
| 20260502091255 | 36 | 18 | 0.0 | 0.0 | 0.00 | 0.00 | 0.00 | 78 | 1009.3 |
| 20260502090747 | 37 | 18 | 0.0 | 0.0 | 0.00 | 0.00 | 0.00 | 76 | 1009.3 |
| 20260502071525 | 41 | 18 | 0.0 | 4.3 | 0.00 | 0.00 | 0.00 | 67 | 1009.6 |
| 20260502071018 | 42 | 18 | 0.0 | 6.1 | 0.00 | 0.00 | 0.00 | 67 | 1009.6 |
| 20260502070520 | 42 | 18 | 3.5 | 6.1 | 0.00 | 0.00 | 0.00 | 67 | 1009.5 |
| 20260502070019 | 42 | 1 | 2.6 | 6.1 | 0.00 | 0.00 | 0.00 | 67 | 1009.6 |
| 20260502065501 | 42 | 59 | 0.0 | 0.0 | 0.00 | 0.00 | 0.00 | 66 | 1009.5 |
| 20260502063939 | 43 | 59 | 0.0 | 0.0 | 0.00 | 0.00 | 0.00 | 65 | 1009.5 |
| 20260502063437 | 43 | 59 | 0.0 | 0.0 | 0.00 | 0.00 | 0.00 | 64 | 1009.5 |
| 20260502062919 | 43 | 59 | 0.0 | 5.2 | 0.00 | 0.00 | 0.00 | 64 | 1009.3 |
| 20260502062414 | 44 | 59 | 0.0 | 5.2 | 0.00 | 0.00 | 0.00 | 64 | 1009.5 |
| 20260502061913 | 44 | 14 | 0.0 | 5.2 | 0.00 | 0.00 | 0.00 | 64 | 1009.3 |
| 20260502061407 | 44 | 39 | 0.0 | 5.2 | 0.00 | 0.00 | 0.00 | 64 | 1009.3 |
| 20260502060906 | 44 | 26 | 0.0 | 0.0 | 0.00 | 0.00 | 0.00 | 63 | 1009.3 |
| 20260502060405 | 44 | 26 | 0.0 | 0.0 | 0.00 | 0.00 | 0.00 | 63 | 1009.3 |
| 20260502055854 | 44 | 26 | 0.0 | 0.0 | 0.00 | 0.00 | 0.00 | 63 | 1009.2 |
| 20260502055325 | 44 | 26 | 0.0 | 2.6 | 0.00 | 0.00 | 0.00 | 63 | 1009.2 |
| 20260502054806 | 44 | 26 | 0.0 | 2.6 | 0.00 | 0.00 | 0.00 | 63 | 1009.2 |
| 20260502054303 | 44 | 26 | 0.0 | 2.6 | 0.00 | 0.00 | 0.00 | 63 | 1009.2 |
| 20260502053757 | 44 | 37 | 0.0 | 0.0 | 0.00 | 0.00 | 0.00 | 63 | 1009.1 |
| 20260502052731 | 46 | 37 | 0.0 | 0.0 | 0.00 | 0.00 | 0.00 | 61 | 1009.1 |
| 20260502052223 | 46 | 37 | 0.0 | 0.0 | 0.00 | 0.00 | 0.00 | 61 | 1009.1 |
| 20260502051654 | 46 | 37 | 0.0 | 0.0 | 0.00 | 0.00 | 0.00 | 60 | 1009.1 |
| 20260502051152 | 47 | 37 | 0.0 | 0.0 | 0.00 | 0.00 | 0.00 | 60 | 1009.2 |
| 20260502050640 | 47 | 37 | 0.0 | 0.0 | 0.00 | 0.00 | 0.00 | 59 | 1009.1 |
| 20260502050123 | 47 | 37 | 0.0 | 0.0 | 0.00 | 0.00 | 0.00 | 59 | 1009.1 |
| 20260502045545 | 47 | 37 | 0.0 | 0.0 | 0.00 | 0.00 | 0.00 | 59 | 1009.1 |
| 20260502045040 | 48 | 37 | 0.0 | 0.0 | 0.00 | 0.00 | 0.00 | 59 | 1009.0 |
| 20260502044541 | 48 | 37 | 0.0 | 0.0 | 0.00 | 0.00 | 0.00 | 58 | 1008.9 |
| 20260502044019 | 49 | 37 | 0.0 | 0.0 | 0.00 | 0.00 | 0.00 | 57 | 1008.9 |
| 20260502043518 | 49 | 37 | 0.0 | 2.6 | 0.00 | 0.00 | 0.00 | 57 | 1009.0 |
| 20260502042957 | 49 | 37 | 0.0 | 2.6 | 0.00 | 0.00 | 0.00 | 56 | 1008.9 |
| 20260502042447 | 49 | 37 | 0.9 | 2.6 | 0.00 | 0.00 | 0.00 | 56 | 1008.8 |
| 20260502041947 | 49 | 54 | 0.0 | 0.0 | 0.00 | 0.00 | 0.00 | 56 | 1008.6 |
| 20260502041437 | 49 | 54 | 0.0 | 0.0 | 0.00 | 0.00 | 0.00 | 55 | 1008.6 |
| 20260502040909 | 50 | 54 | 0.0 | 0.0 | 0.00 | 0.00 | 0.00 | 54 | 1008.5 |
| 20260502040402 | 50 | 54 | 0.0 | 0.0 | 0.00 | 0.00 | 0.00 | 53 | 1008.4 |
| 20260502035855 | 51 | 54 | 0.0 | 3.5 | 0.00 | 0.00 | 0.00 | 52 | 1008.4 |
| 20260502035349 | 51 | 54 | 0.0 | 3.5 | 0.00 | 0.00 | 0.00 | 52 | 1008.4 |
| 20260502034845 | 52 | 281 | 0.0 | 0.0 | 0.00 | 0.00 | 0.00 | 51 | 1008.3 |
| 20260502034327 | 52 | 281 | 0.0 | 4.3 | 0.00 | 0.00 | 0.00 | 51 | 1008.2 |
| 20260502033827 | 53 | 281 | 0.0 | 7.0 | 0.00 | 0.00 | 0.00 | 50 | 1008.1 |
| 20260502033301 | 53 | 281 | 0.0 | 7.8 | 0.00 | 0.00 | 0.00 | 50 | 1008.1 |
| 20260502032749 | 53 | 270 | 4.3 | 7.8 | 0.00 | 0.00 | 0.00 | 49 | 1007.9 |
| 20260502031739 | 54 | 14 | 0.0 | 4.3 | 0.00 | 0.00 | 0.00 | 47 | 1007.7 |
| 20260502031218 | 54 | 14 | 0.0 | 4.3 | 0.00 | 0.00 | 0.00 | 46 | 1007.6 |
| 20260502030709 | 55 | 358 | 0.0 | 3.5 | 0.00 | 0.00 | 0.00 | 46 | 1007.5 |
| 20260502025708 | 57 | 203 | 0.0 | 0.0 | 0.00 | 0.00 | 0.00 | 44 | 1007.2 |
| 20260502025149 | 57 | 203 | 0.0 | 0.0 | 0.00 | 0.00 | 0.00 | 43 | 1007.2 |
| 20260502024108 | 60 | 203 | 0.0 | 0.0 | 0.00 | 0.00 | 0.00 | 42 | 1007.0 |
| 20260502023606 | 60 | 203 | 0.0 | 0.0 | 0.00 | 0.00 | 0.00 | 41 | 1007.0 |
| 20260502023101 | 61 | 203 | 0.0 | 0.0 | 0.00 | 0.00 | 0.00 | 40 | 1007.0 |
| 20260502022559 | 62 | 203 | 0.0 | 0.0 | 0.00 | 0.00 | 0.00 | 40 | 1006.9 |
| 20260502022052 | 62 | 203 | 0.0 | 0.0 | 0.00 | 0.00 | 0.00 | 37 | 1006.9 |
| 20260502021552 | 63 | 203 | 0.0 | 0.0 | 0.00 | 0.00 | 0.00 | 37 | 1006.9 |
| 20260502021046 | 64 | 203 | 0.0 | 0.0 | 0.00 | 0.00 | 0.00 | 36 | 1006.9 |
| 20260502020531 | 65 | 203 | 0.0 | 0.0 | 0.00 | 0.00 | 0.00 | 33 | 1006.8 |
| 20260502020024 | 66 | 203 | 0.0 | 5.2 | 0.00 | 0.00 | 0.00 | 32 | 1006.7 |
| 20260502015524 | 67 | 203 | 0.0 | 5.2 | 0.00 | 0.00 | 0.00 | 29 | 1006.8 |
| 20260502015013 | 68 | 209 | 0.9 | 7.0 | 0.00 | 0.00 | 0.00 | 26 | 1006.7 |
| 20260502014453 | 69 | 246 | 2.6 | 7.8 | 0.00 | 0.00 | 0.00 | 24 | 1006.7 |
| 20260502013949 | 69 | 151 | 2.6 | 8.7 | 0.00 | 0.00 | 0.00 | 23 | 1006.7 |
| 20260502013449 | 70 | 225 | 5.2 | 8.7 | 0.00 | 0.00 | 0.00 | 23 | 1006.8 |
| 20260502012950 | 71 | 253 | 5.2 | 8.7 | 0.00 | 0.00 | 0.00 | 22 | 1006.8 |
| 20260502012449 | 72 | 227 | 4.3 | 10.4 | 0.00 | 0.00 | 0.00 | 22 | 1006.7 |
| 20260502011445 | 73 | 237 | 5.2 | 10.4 | 0.00 | 0.00 | 0.00 | 21 | 1006.8 |
| 20260502010946 | 73 | 246 | 7.8 | 11.3 | 0.00 | 0.00 | 0.00 | 21 | 1006.8 |
| 20260502010444 | 73 | 213 | 5.2 | 12.2 | 0.00 | 0.00 | 0.00 | 20 | 1006.7 |
| 20260502005942 | 73 | 168 | 6.1 | 13.0 | 0.00 | 0.00 | 0.00 | 20 | 1006.7 |